createdAt,value
2017-03-07T00:00:08.120Z,30.61
2017-03-07T00:01:08.121Z,30.61
2017-03-07T00:02:08.646Z,30.8
2017-03-07T00:03:08.130Z,30.51
2017-03-07T00:04:08.140Z,30.8
2017-03-07T00:05:08.144Z,30.41
2017-03-07T00:06:07.756Z,30.61
2017-03-07T00:07:08.206Z,30.61
2017-03-07T00:08:08.070Z,30.22
2017-03-07T00:09:07.837Z,30.41
2017-03-07T00:10:08.274Z,30.7
2017-03-07T00:11:08.233Z,30.51
2017-03-07T00:12:08.280Z,30.9
2017-03-07T00:13:08.299Z,30.99
2017-03-07T00:14:08.267Z,30.61
2017-03-07T00:15:08.274Z,30.8
2017-03-07T00:16:08.217Z,30.8
2017-03-07T00:17:08.272Z,30.8
2017-03-07T00:18:08.278Z,30.9
2017-03-07T00:19:08.286Z,30.99
2017-03-07T00:20:08.245Z,30.9
2017-03-07T00:21:08.296Z,30.9
2017-03-07T00:22:08.256Z,30.9
2017-03-07T00:23:08.329Z,30.99
2017-03-07T00:24:08.868Z,30.99
2017-03-07T00:25:08.274Z,30.9
2017-03-07T00:26:08.033Z,30.99
2017-03-07T00:27:08.287Z,30.8
2017-03-07T00:28:07.897Z,30.32
2017-03-07T00:29:08.313Z,30.7
2017-03-07T00:30:08.355Z,30.22
2017-03-07T00:31:08.373Z,30.32
2017-03-07T00:32:08.317Z,30.61
2017-03-07T00:33:07.934Z,30.8
2017-03-07T00:34:08.330Z,30.61
2017-03-07T00:35:08.857Z,30.41
2017-03-07T00:36:07.949Z,30.8
2017-03-07T00:37:08.402Z,30.9
2017-03-07T00:38:07.958Z,30.61
2017-03-07T00:39:09.262Z,30.32
2017-03-07T00:40:08.406Z,30.41
2017-03-07T00:41:08.425Z,30.41
2017-03-07T00:42:08.381Z,30.41
2017-03-07T00:43:08.394Z,30.41
2017-03-07T00:44:08.445Z,30.9
2017-03-07T00:45:08.417Z,30.41
2017-03-07T00:46:09.165Z,30.41
2017-03-07T00:47:08.438Z,30.32
2017-03-07T00:48:08.430Z,30.41
2017-03-07T00:49:08.492Z,30.32
2017-03-07T00:50:08.482Z,30.41
2017-03-07T00:51:08.445Z,30.32
2017-03-07T00:52:08.058Z,30.32
2017-03-07T00:53:08.451Z,30.9
2017-03-07T00:54:08.511Z,30.41
2017-03-07T00:55:08.512Z,30.32
2017-03-07T00:56:08.466Z,30.51
2017-03-07T00:57:10.287Z,30.41
2017-03-07T00:58:08.534Z,30.22
2017-03-07T00:59:08.504Z,30.41
2017-03-07T01:00:08.493Z,30.41
2017-03-07T01:01:08.500Z,30.51
2017-03-07T01:02:08.163Z,30.7
2017-03-07T01:03:08.525Z,30.51
2017-03-07T01:04:08.528Z,30.7
2017-03-07T01:05:08.546Z,30.51
2017-03-07T01:06:08.195Z,30.51
2017-03-07T01:07:08.602Z,30.7
2017-03-07T01:08:08.898Z,30.61
2017-03-07T01:09:08.574Z,30.41
2017-03-07T01:10:08.565Z,30.7
2017-03-07T01:11:08.565Z,30.51
2017-03-07T01:12:08.276Z,30.61
2017-03-07T01:13:08.575Z,30.51
2017-03-07T01:14:08.251Z,30.51
2017-03-07T01:15:08.644Z,30.51
2017-03-07T01:16:08.650Z,30.51
2017-03-07T01:17:08.602Z,30.41
2017-03-07T01:18:08.622Z,30.41
2017-03-07T01:19:09.215Z,30.32
2017-03-07T01:20:08.727Z,30.61
2017-03-07T01:21:08.631Z,30.51
2017-03-07T01:22:08.299Z,30.51
2017-03-07T01:23:08.637Z,30.41
2017-03-07T01:24:08.301Z,30.41
2017-03-07T01:25:08.259Z,30.4
2017-03-07T01:26:08.657Z,30.51
2017-03-07T01:27:08.727Z,30.51
2017-03-07T01:28:08.327Z,30.41
2017-03-07T01:29:08.728Z,30.32
2017-03-07T01:30:09.286Z,30.51
2017-03-07T01:31:08.724Z,30.41
2017-03-07T01:32:10.957Z,30.32
2017-03-07T01:33:08.702Z,30.41
2017-03-07T01:34:08.709Z,30.22
2017-03-07T01:35:09.121Z,30.41
2017-03-07T01:36:08.733Z,30.41
2017-03-07T01:37:08.758Z,30.41
2017-03-07T01:38:08.843Z,30.41
2017-03-07T01:39:08.842Z,30.32
2017-03-07T01:40:08.849Z,30.22
2017-03-07T01:41:09.410Z,30.22
2017-03-07T01:42:08.758Z,30.12
2017-03-07T01:43:08.677Z,30.32
2017-03-07T01:44:08.872Z,30.32
2017-03-07T01:45:08.827Z,30.32
2017-03-07T01:46:08.785Z,30.22
2017-03-07T01:47:08.795Z,30.22
2017-03-07T01:48:08.801Z,30.61
2017-03-07T01:49:08.459Z,30.51
2017-03-07T01:50:08.861Z,30.22
2017-03-07T01:51:08.867Z,30.12
2017-03-07T01:52:09.618Z,30.22
2017-03-07T01:53:08.830Z,30.32
2017-03-07T01:54:08.838Z,30.32
2017-03-07T01:55:08.947Z,30.32
2017-03-07T01:56:08.614Z,30.22
2017-03-07T01:57:08.859Z,30.12
2017-03-07T01:58:08.863Z,30.12
2017-03-07T01:59:08.870Z,30.12
2017-03-07T02:00:08.875Z,30.22
2017-03-07T02:01:08.932Z,30.61
2017-03-07T02:02:09.191Z,30.32
2017-03-07T02:03:09.660Z,30.03
2017-03-07T02:04:08.556Z,30.32
2017-03-07T02:05:08.907Z,30.12
2017-03-07T02:06:08.912Z,30.22
2017-03-07T02:07:08.921Z,30.32
2017-03-07T02:08:08.546Z,30.22
2017-03-07T02:09:08.938Z,30.22
2017-03-07T02:10:08.953Z,30.32
2017-03-07T02:11:08.603Z,29.93
2017-03-07T02:12:08.968Z,30.22
2017-03-07T02:13:09.010Z,30.12
2017-03-07T02:14:09.732Z,30.03
2017-03-07T02:15:09.023Z,30.12
2017-03-07T02:16:08.930Z,30.22
2017-03-07T02:17:09.033Z,30.22
2017-03-07T02:18:08.652Z,30.03
2017-03-07T02:19:09.085Z,30.22
2017-03-07T02:20:08.658Z,30.12
2017-03-07T02:21:09.065Z,30.12
2017-03-07T02:22:09.026Z,30.32
2017-03-07T02:23:09.076Z,30.03
2017-03-07T02:24:09.038Z,30.03
2017-03-07T02:25:09.787Z,30.22
2017-03-07T02:26:09.047Z,30.12
2017-03-07T02:27:09.047Z,30.32
2017-03-07T02:28:09.108Z,30.3
2017-03-07T02:29:09.072Z,30.12
2017-03-07T02:30:08.671Z,30.03
2017-03-07T02:31:09.122Z,30.41
2017-03-07T02:32:09.184Z,30.22
2017-03-07T02:33:09.215Z,30.22
2017-03-07T02:34:08.700Z,30.03
2017-03-07T02:35:09.153Z,30.12
2017-03-07T02:36:09.617Z,29.93
2017-03-07T02:37:09.162Z,30.12
2017-03-07T02:38:09.125Z,30.01
2017-03-07T02:39:09.124Z,30.03
2017-03-07T02:40:08.734Z,30.03
2017-03-07T02:41:09.142Z,30.12
2017-03-07T02:42:08.745Z,30.03
2017-03-07T02:43:09.162Z,30.12
2017-03-07T02:44:09.167Z,30.03
2017-03-07T02:45:09.536Z,30.22
2017-03-07T02:46:09.177Z,30.12
2017-03-07T02:47:09.479Z,29.83
2017-03-07T02:48:09.183Z,30.22
2017-03-07T02:49:09.288Z,30.22
2017-03-07T02:50:09.193Z,30.22
2017-03-07T02:51:09.249Z,30.22
2017-03-07T02:52:09.255Z,30.12
2017-03-07T02:53:09.213Z,30.12
2017-03-07T02:54:09.282Z,30.22
2017-03-07T02:55:09.223Z,30.12
2017-03-07T02:56:09.231Z,30.03
2017-03-07T02:57:09.250Z,30.22
2017-03-07T02:58:09.796Z,30.12
2017-03-07T02:59:09.259Z,30.12
2017-03-07T03:00:09.378Z,30.22
2017-03-07T03:01:09.312Z,30.03
2017-03-07T03:02:09.271Z,30.03
2017-03-07T03:03:09.327Z,30.03
2017-03-07T03:04:09.331Z,30.11
2017-03-07T03:05:09.287Z,30.03
2017-03-07T03:06:09.293Z,30.01
2017-03-07T03:07:09.300Z,30.11
2017-03-07T03:08:08.973Z,30.01
2017-03-07T03:09:09.769Z,30.01
2017-03-07T03:10:09.371Z,30.12
2017-03-07T03:11:09.478Z,30.22
2017-03-07T03:12:09.334Z,30.01
2017-03-07T03:13:09.337Z,30.21
2017-03-07T03:14:09.353Z,30.12
2017-03-07T03:15:09.352Z,29.93
2017-03-07T03:16:09.405Z,30.12
2017-03-07T03:17:09.415Z,29.93
2017-03-07T03:18:09.433Z,30.21
2017-03-07T03:19:09.377Z,30.22
2017-03-07T03:20:10.137Z,30.03
2017-03-07T03:21:09.441Z,30.32
2017-03-07T03:22:09.398Z,29.93
2017-03-07T03:23:09.008Z,30.11
2017-03-07T03:24:09.466Z,30.12
2017-03-07T03:25:09.017Z,29.83
2017-03-07T03:26:09.432Z,30.03
2017-03-07T03:27:09.477Z,30.21
2017-03-07T03:28:09.439Z,30.22
2017-03-07T03:29:09.450Z,30.11
2017-03-07T03:30:09.111Z,30.03
2017-03-07T03:31:10.354Z,29.91
2017-03-07T03:32:09.063Z,30.22
2017-03-07T03:33:09.479Z,30.03
2017-03-07T03:34:09.472Z,30.11
2017-03-07T03:35:09.148Z,29.93
2017-03-07T03:36:09.547Z,29.93
2017-03-07T03:37:09.147Z,30.12
2017-03-07T03:38:09.105Z,30.22
2017-03-07T03:39:09.501Z,30.01
2017-03-07T03:40:09.563Z,30.22
2017-03-07T03:41:09.518Z,30.22
2017-03-07T03:42:10.271Z,30.12
2017-03-07T03:43:09.528Z,30.11
2017-03-07T03:44:09.537Z,30.03
2017-03-07T03:45:09.595Z,30.22
2017-03-07T03:46:09.597Z,30.03
2017-03-07T03:47:09.604Z,30.12
2017-03-07T03:48:09.562Z,30.01
2017-03-07T03:49:09.571Z,30.03
2017-03-07T03:50:10.074Z,29.82
2017-03-07T03:51:09.638Z,29.91
2017-03-07T03:52:09.634Z,30.22
2017-03-07T03:53:10.194Z,29.93
2017-03-07T03:54:09.210Z,29.93
2017-03-07T03:55:09.659Z,30.22
2017-03-07T03:56:09.724Z,30.12
2017-03-07T03:57:09.620Z,29.91
2017-03-07T03:58:09.621Z,30.22
2017-03-07T03:59:09.678Z,30.32
2017-03-07T04:00:09.639Z,30.01
2017-03-07T04:01:09.312Z,30.03
2017-03-07T04:02:09.698Z,30.12
2017-03-07T04:03:09.708Z,30.03
2017-03-07T04:04:10.410Z,30.03
2017-03-07T04:05:09.677Z,30.12
2017-03-07T04:06:09.775Z,30.01
2017-03-07T04:07:09.779Z,30.03
2017-03-07T04:08:09.685Z,30.03
2017-03-07T04:09:09.693Z,30.12
2017-03-07T04:10:09.697Z,29.82
2017-03-07T04:11:09.757Z,29.93
2017-03-07T04:12:09.713Z,30.11
2017-03-07T04:13:09.783Z,30.12
2017-03-07T04:14:09.731Z,30.21
2017-03-07T04:15:10.681Z,30.21
2017-03-07T04:16:09.392Z,30.22
2017-03-07T04:17:09.806Z,30.03
2017-03-07T04:18:09.811Z,29.91
2017-03-07T04:19:09.805Z,29.83
2017-03-07T04:20:09.779Z,30.01
2017-03-07T04:21:09.421Z,29.93
2017-03-07T04:22:09.824Z,29.83
2017-03-07T04:23:09.797Z,30.12
2017-03-07T04:24:09.392Z,29.82
2017-03-07T04:25:09.851Z,30.12
2017-03-07T04:26:10.729Z,29.82
2017-03-07T04:27:09.805Z,29.83
2017-03-07T04:28:09.963Z,30.03
2017-03-07T04:29:09.826Z,30.01
2017-03-07T04:30:09.826Z,30.22
2017-03-07T04:31:09.833Z,30.03
2017-03-07T04:32:09.845Z,30.12
2017-03-07T04:33:09.845Z,30.3
2017-03-07T04:34:09.853Z,30.11
2017-03-07T04:35:09.859Z,29.82
2017-03-07T04:36:09.782Z,29.82
2017-03-07T04:37:10.776Z,30.01
2017-03-07T04:38:09.886Z,29.82
2017-03-07T04:39:10.583Z,29.83
2017-03-07T04:40:09.952Z,29.91
2017-03-07T04:41:09.953Z,29.82
2017-03-07T04:42:09.904Z,29.93
2017-03-07T04:43:09.907Z,29.91
2017-03-07T04:44:09.971Z,30.21
2017-03-07T04:45:09.950Z,30.11
2017-03-07T04:46:09.976Z,30.21
2017-03-07T04:47:09.933Z,30.21
2017-03-07T04:48:10.914Z,30.21
2017-03-07T04:49:09.948Z,29.91
2017-03-07T04:50:10.819Z,30.21
2017-03-07T04:51:10.058Z,30.21
2017-03-07T04:52:09.975Z,30.21
2017-03-07T04:53:10.030Z,30.21
2017-03-07T04:54:10.030Z,30.21
2017-03-07T04:55:10.036Z,30.11
2017-03-07T04:56:10.045Z,30.11
2017-03-07T04:57:10.047Z,30.01
2017-03-07T04:58:10.014Z,30.11
2017-03-07T04:59:10.893Z,30.11
2017-03-07T05:00:10.019Z,30.01
2017-03-07T05:01:10.683Z,29.74
2017-03-07T05:02:10.028Z,29.83
2017-03-07T05:03:10.035Z,29.91
2017-03-07T05:04:10.049Z,29.91
2017-03-07T05:05:10.046Z,29.82
2017-03-07T05:06:10.109Z,30.01
2017-03-07T05:07:10.058Z,29.82
2017-03-07T05:08:10.130Z,30.03
2017-03-07T05:09:10.069Z,30.01
2017-03-07T05:10:11.103Z,30.01
2017-03-07T05:11:10.133Z,29.91
2017-03-07T05:12:10.991Z,30.21
2017-03-07T05:13:10.097Z,30.01
2017-03-07T05:14:10.150Z,29.72
2017-03-07T05:15:10.161Z,30.11
2017-03-07T05:16:10.215Z,29.91
2017-03-07T05:17:09.776Z,29.82
2017-03-07T05:18:10.128Z,30.01
2017-03-07T05:19:10.234Z,29.82
2017-03-07T05:20:10.200Z,30.11
2017-03-07T05:21:10.212Z,29.82
2017-03-07T05:22:10.155Z,29.91
2017-03-07T05:23:11.167Z,29.82
2017-03-07T05:24:09.828Z,29.82
2017-03-07T05:25:09.776Z,29.91
2017-03-07T05:26:09.784Z,29.82
2017-03-07T05:27:10.535Z,29.82
2017-03-07T05:28:10.194Z,29.82
2017-03-07T05:29:10.250Z,30.01
2017-03-07T05:30:10.208Z,29.91
2017-03-07T05:31:09.814Z,30.01
2017-03-07T05:32:10.218Z,30.01
2017-03-07T05:33:10.275Z,30.11
2017-03-07T05:34:11.292Z,29.72
2017-03-07T05:35:09.840Z,30.01
2017-03-07T05:36:10.343Z,29.91
2017-03-07T05:37:10.357Z,30.01
2017-03-07T05:38:10.257Z,30.01
2017-03-07T05:39:10.273Z,29.91
2017-03-07T05:40:09.923Z,29.82
2017-03-07T05:41:10.435Z,30.11
2017-03-07T05:42:10.327Z,29.72
2017-03-07T05:43:09.941Z,30.01
2017-03-07T05:44:10.294Z,30.01
2017-03-07T05:45:12.251Z,29.91
2017-03-07T05:46:10.355Z,30.01
2017-03-07T05:47:10.311Z,29.91
2017-03-07T05:48:09.922Z,29.82
2017-03-07T05:49:09.976Z,29.82
2017-03-07T05:50:10.382Z,29.72
2017-03-07T05:51:10.387Z,30.4
2017-03-07T05:52:10.542Z,30.01
2017-03-07T05:53:10.347Z,29.82
2017-03-07T05:54:10.356Z,29.82
2017-03-07T05:55:10.014Z,29.82
2017-03-07T05:56:11.559Z,30.21
2017-03-07T05:57:10.373Z,29.91
2017-03-07T05:58:10.384Z,30.01
2017-03-07T05:59:10.492Z,30.21
2017-03-07T06:00:10.448Z,29.72
2017-03-07T06:01:10.461Z,29.91
2017-03-07T06:02:10.510Z,29.82
2017-03-07T06:03:10.714Z,30.3
2017-03-07T06:04:10.417Z,30.01
2017-03-07T06:05:10.432Z,29.82
2017-03-07T06:06:10.480Z,29.82
2017-03-07T06:07:11.619Z,29.72
2017-03-07T06:08:10.494Z,29.82
2017-03-07T06:09:10.447Z,29.91
2017-03-07T06:10:10.059Z,29.63
2017-03-07T06:11:10.462Z,29.82
2017-03-07T06:12:10.519Z,29.72
2017-03-07T06:13:10.522Z,30.4
2017-03-07T06:14:10.841Z,30.3
2017-03-07T06:15:10.736Z,30.21
2017-03-07T06:16:10.500Z,30.3
2017-03-07T06:17:10.550Z,30.01
2017-03-07T06:18:10.502Z,29.63
2017-03-07T06:19:10.559Z,29.82
2017-03-07T06:20:10.568Z,29.82
2017-03-07T06:21:10.528Z,30.49
2017-03-07T06:22:10.536Z,29.72
2017-03-07T06:23:10.585Z,29.63
2017-03-07T06:24:10.541Z,29.82
2017-03-07T06:25:10.898Z,29.82
2017-03-07T06:26:10.157Z,29.82
2017-03-07T06:27:10.563Z,30.01
2017-03-07T06:28:10.666Z,29.91
2017-03-07T06:29:11.873Z,29.63
2017-03-07T06:30:10.579Z,29.91
2017-03-07T06:31:10.239Z,29.82
2017-03-07T06:32:10.602Z,29.72
2017-03-07T06:33:10.599Z,30.01
2017-03-07T06:34:10.704Z,29.91
2017-03-07T06:35:10.673Z,29.91
2017-03-07T06:36:10.881Z,30.01
2017-03-07T06:37:10.674Z,30.21
2017-03-07T06:38:10.931Z,30.01
2017-03-07T06:39:10.636Z,30.21
2017-03-07T06:40:10.651Z,30.21
2017-03-07T06:41:10.707Z,30.01
2017-03-07T06:42:10.707Z,30.4
2017-03-07T06:43:10.664Z,30.01
2017-03-07T06:44:10.328Z,29.91
2017-03-07T06:45:10.745Z,30.49
2017-03-07T06:46:10.734Z,29.63
2017-03-07T06:47:11.234Z,29.91
2017-03-07T06:48:10.795Z,30.49
2017-03-07T06:49:10.746Z,29.72
2017-03-07T06:50:10.705Z,29.91
2017-03-07T06:51:10.711Z,30.01
2017-03-07T06:52:10.716Z,29.72
2017-03-07T06:53:10.724Z,30.4
2017-03-07T06:54:10.777Z,30.01
2017-03-07T06:55:10.796Z,30.3
2017-03-07T06:56:10.747Z,29.91
2017-03-07T06:57:10.800Z,30.4
2017-03-07T06:58:11.573Z,30.01
2017-03-07T06:59:10.765Z,29.91
2017-03-07T07:00:10.772Z,29.82
2017-03-07T07:01:10.824Z,30.01
2017-03-07T07:02:10.435Z,29.72
2017-03-07T07:03:10.835Z,29.82
2017-03-07T07:04:10.896Z,30.01
2017-03-07T07:05:10.808Z,30.01
2017-03-07T07:06:10.853Z,30.01
2017-03-07T07:07:10.910Z,29.72
2017-03-07T07:08:10.829Z,29.82
2017-03-07T07:09:11.930Z,29.91
2017-03-07T07:10:10.880Z,29.91
2017-03-07T07:11:11.434Z,29.82
2017-03-07T07:12:11.992Z,30.01
2017-03-07T07:13:10.899Z,29.91
2017-03-07T07:14:10.903Z,30.01
2017-03-07T07:15:10.873Z,29.63
2017-03-07T07:16:10.920Z,30.01
2017-03-07T07:17:10.932Z,30.21
2017-03-07T07:18:10.893Z,29.93
2017-03-07T07:19:10.935Z,29.25
2017-03-07T07:20:11.891Z,28.97
2017-03-07T07:21:10.946Z,29.25
2017-03-07T07:22:11.608Z,29.08
2017-03-07T07:23:10.921Z,28.78
2017-03-07T07:24:10.978Z,28.59
2017-03-07T07:25:10.971Z,28.02
2017-03-07T07:26:10.987Z,28.22
2017-03-07T07:27:10.931Z,28.3
2017-03-07T07:28:10.939Z,27.64
2017-03-07T07:29:11.048Z,26.97
2017-03-07T07:30:11.053Z,27.55
2017-03-07T07:31:11.959Z,27.17
2017-03-07T07:32:11.066Z,27.56
2017-03-07T07:33:11.871Z,26.88
2017-03-07T07:34:11.030Z,26.99
2017-03-07T07:35:11.006Z,26.79
2017-03-07T07:36:11.043Z,26.7
2017-03-07T07:37:11.086Z,27.09
2017-03-07T07:38:11.114Z,27.09
2017-03-07T07:39:11.107Z,26.51
2017-03-07T07:40:11.067Z,26.51
2017-03-07T07:41:11.072Z,26.61
2017-03-07T07:42:11.079Z,26.41
2017-03-07T07:43:11.038Z,26.51
2017-03-07T07:44:12.195Z,26.21
2017-03-07T07:45:11.109Z,26.21
2017-03-07T07:46:11.155Z,26.51
2017-03-07T07:47:11.113Z,26.52
2017-03-07T07:48:11.136Z,26.72
2017-03-07T07:49:11.077Z,26.41
2017-03-07T07:50:11.139Z,26.32
2017-03-07T07:51:11.190Z,26.62
2017-03-07T07:52:11.148Z,26.41
2017-03-07T07:53:11.103Z,26.52
2017-03-07T07:54:10.824Z,26.51
2017-03-07T07:55:12.271Z,26.41
2017-03-07T07:56:10.734Z,26.51
2017-03-07T07:57:11.137Z,26.61
2017-03-07T07:58:11.191Z,26.51
2017-03-07T07:59:11.197Z,26.41
2017-03-07T08:00:11.208Z,26.7
2017-03-07T08:01:11.223Z,26.79
2017-03-07T08:02:11.222Z,26.7
2017-03-07T08:03:10.879Z,26.99
2017-03-07T08:04:11.280Z,26.89
2017-03-07T08:05:11.241Z,27.19
2017-03-07T08:06:12.397Z,27.17
2017-03-07T08:07:11.204Z,26.99
2017-03-07T08:08:11.212Z,27.37
2017-03-07T08:09:11.266Z,27.26
2017-03-07T08:10:11.331Z,27.26
2017-03-07T08:11:11.335Z,27.46
2017-03-07T08:12:11.287Z,27.36
2017-03-07T08:13:11.344Z,27.75
2017-03-07T08:14:11.310Z,27.17
2017-03-07T08:15:11.079Z,27.94
2017-03-07T08:16:11.366Z,27.66
2017-03-07T08:17:11.378Z,27.56
2017-03-07T08:18:11.331Z,27.94
2017-03-07T08:19:11.395Z,27.46
2017-03-07T08:20:11.408Z,27.75
2017-03-07T08:21:11.351Z,27.56
2017-03-07T08:22:11.407Z,28.04
2017-03-07T08:23:11.371Z,28.03
2017-03-07T08:24:11.373Z,28.31
2017-03-07T08:25:11.392Z,28.31
2017-03-07T08:26:11.385Z,28.22
2017-03-07T08:27:10.948Z,28.22
2017-03-07T08:28:11.354Z,28.13
2017-03-07T08:29:11.407Z,28.13
2017-03-07T08:30:11.413Z,28.89
2017-03-07T08:31:11.471Z,28.51
2017-03-07T08:32:11.423Z,28.61
2017-03-07T08:33:11.444Z,28.89
2017-03-07T08:34:11.494Z,28.99
2017-03-07T08:35:11.466Z,29.17
2017-03-07T08:36:11.454Z,29.28
2017-03-07T08:37:12.011Z,29.28
2017-03-07T08:38:11.467Z,29.19
2017-03-07T08:39:11.774Z,29.08
2017-03-07T08:40:11.086Z,28.98
2017-03-07T08:41:11.508Z,28.88
2017-03-07T08:42:11.543Z,29.36
2017-03-07T08:43:11.566Z,29.36
2017-03-07T08:44:11.561Z,29.46
2017-03-07T08:45:11.515Z,29.28
2017-03-07T08:46:11.127Z,29.57
2017-03-07T08:47:11.581Z,28.89
2017-03-07T08:48:12.184Z,28.99
2017-03-07T08:49:11.853Z,29.36
2017-03-07T08:50:11.547Z,29.47
2017-03-07T08:51:11.614Z,29.46
2017-03-07T08:52:11.560Z,28.99
2017-03-07T08:53:11.572Z,29.57
2017-03-07T08:54:11.626Z,29.57
2017-03-07T08:55:11.582Z,29.47
2017-03-07T08:56:11.244Z,29.38
2017-03-07T08:57:11.554Z,29.47
2017-03-07T08:58:11.574Z,29.47
2017-03-07T08:59:12.510Z,29.57
2017-03-07T09:00:11.624Z,28.99
2017-03-07T09:01:11.837Z,28.99
2017-03-07T09:02:11.679Z,29.57
2017-03-07T09:03:11.293Z,29.47
2017-03-07T09:04:11.644Z,29.47
2017-03-07T09:05:11.651Z,29.38
2017-03-07T09:06:11.708Z,29.47
2017-03-07T09:07:11.664Z,28.99
2017-03-07T09:08:11.671Z,29.47
2017-03-07T09:09:11.633Z,28.99
2017-03-07T09:10:12.748Z,29.38
2017-03-07T09:11:11.739Z,29.09
2017-03-07T09:12:12.099Z,29.47
2017-03-07T09:13:11.705Z,29.38
2017-03-07T09:14:11.771Z,29.47
2017-03-07T09:15:11.781Z,29.38
2017-03-07T09:16:11.279Z,29.38
2017-03-07T09:17:11.732Z,29.38
2017-03-07T09:18:11.743Z,29.38
2017-03-07T09:19:11.800Z,29.47
2017-03-07T09:20:11.802Z,29.38
2017-03-07T09:21:11.808Z,29.28
2017-03-07T09:22:11.778Z,29.47
2017-03-07T09:23:12.178Z,29.28
2017-03-07T09:24:11.821Z,29.47
2017-03-07T09:25:11.808Z,29.47
2017-03-07T09:26:11.792Z,29.77
2017-03-07T09:27:11.754Z,29.67
2017-03-07T09:28:11.805Z,29.47
2017-03-07T09:29:11.764Z,29.38
2017-03-07T09:30:11.484Z,29.28
2017-03-07T09:31:11.874Z,29.38
2017-03-07T09:32:11.836Z,29.38
2017-03-07T09:33:11.446Z,30.05
2017-03-07T09:34:12.764Z,30.15
2017-03-07T09:35:11.902Z,29.77
2017-03-07T09:36:11.940Z,29.96
2017-03-07T09:37:11.916Z,29.86
2017-03-07T09:38:11.924Z,29.96
2017-03-07T09:39:11.931Z,29.67
2017-03-07T09:40:11.889Z,30.15
2017-03-07T09:41:11.893Z,30.15
2017-03-07T09:42:11.508Z,30.15
2017-03-07T09:43:11.920Z,29.96
2017-03-07T09:44:11.865Z,29.96
2017-03-07T09:45:13.085Z,29.86
2017-03-07T09:46:11.979Z,30.05
2017-03-07T09:47:11.936Z,30.54
2017-03-07T09:48:11.507Z,30.05
2017-03-07T09:49:11.949Z,29.86
2017-03-07T09:50:12.017Z,29.86
2017-03-07T09:51:11.631Z,29.77
2017-03-07T09:52:12.024Z,30.05
2017-03-07T09:53:11.531Z,30.05
2017-03-07T09:54:11.983Z,30.15
2017-03-07T09:55:12.042Z,30.25
2017-03-07T09:56:12.870Z,30.25
2017-03-07T09:57:12.056Z,30.05
2017-03-07T09:58:12.013Z,30.15
2017-03-07T09:59:12.274Z,29.86
2017-03-07T10:00:11.978Z,29.77
2017-03-07T10:01:12.083Z,30.25
2017-03-07T10:02:11.990Z,30.04
2017-03-07T10:03:11.999Z,30.05
2017-03-07T10:04:12.055Z,29.77
2017-03-07T10:05:12.013Z,30.05
2017-03-07T10:06:12.119Z,29.94
2017-03-07T10:07:13.101Z,30.15
2017-03-07T10:08:11.688Z,30.05
2017-03-07T10:09:12.039Z,30.04
2017-03-07T10:10:11.702Z,29.77
2017-03-07T10:11:12.104Z,29.96
2017-03-07T10:12:12.117Z,29.96
2017-03-07T10:13:12.172Z,30.04
2017-03-07T10:14:12.076Z,29.66
2017-03-07T10:15:12.081Z,30.24
2017-03-07T10:16:12.390Z,30.24
2017-03-07T10:17:12.212Z,29.85
2017-03-07T10:18:13.126Z,30.15
2017-03-07T10:19:12.158Z,30.24
2017-03-07T10:20:11.781Z,30.14
2017-03-07T10:21:12.125Z,30.14
2017-03-07T10:22:12.231Z,29.66
2017-03-07T10:23:12.187Z,30.24
2017-03-07T10:24:12.193Z,30.43
2017-03-07T10:25:12.211Z,30.04
2017-03-07T10:26:12.274Z,30.43
2017-03-07T10:27:12.165Z,29.85
2017-03-07T10:28:12.187Z,29.85
2017-03-07T10:29:12.231Z,30.04
2017-03-07T10:30:12.288Z,30.14
2017-03-07T10:31:12.566Z,30.14
2017-03-07T10:32:12.305Z,30.14
2017-03-07T10:33:12.209Z,30.14
2017-03-07T10:34:12.263Z,30.04
2017-03-07T10:35:12.321Z,30.24
2017-03-07T10:36:11.895Z,29.94
2017-03-07T10:37:12.237Z,30.24
2017-03-07T10:38:12.445Z,30.04
2017-03-07T10:39:12.309Z,30.25
2017-03-07T10:40:12.366Z,29.94
2017-03-07T10:41:11.870Z,30.15
2017-03-07T10:42:11.974Z,29.85
2017-03-07T10:43:12.377Z,30.14
2017-03-07T10:44:12.396Z,29.94
2017-03-07T10:45:12.395Z,30.24
2017-03-07T10:46:12.347Z,30.04
2017-03-07T10:47:12.412Z,30.15
2017-03-07T10:48:12.310Z,29.96
2017-03-07T10:49:12.956Z,30.15
2017-03-07T10:50:12.325Z,30.24
2017-03-07T10:51:12.330Z,30.05
2017-03-07T10:52:12.441Z,30.14
2017-03-07T10:53:12.455Z,30.25
2017-03-07T10:54:12.059Z,30.14
2017-03-07T10:55:12.409Z,30.24
2017-03-07T10:56:11.971Z,30.05
2017-03-07T10:57:12.433Z,30.05
2017-03-07T10:58:12.502Z,30.35
2017-03-07T10:59:12.528Z,30.25
2017-03-07T11:00:12.999Z,29.96
2017-03-07T11:01:12.455Z,30.05
2017-03-07T11:02:12.431Z,30.25
2017-03-07T11:03:12.517Z,30.25
2017-03-07T11:04:12.475Z,30.05
2017-03-07T11:05:12.538Z,30.24
2017-03-07T11:06:12.489Z,30.14
2017-03-07T11:07:12.500Z,30.15
2017-03-07T11:08:12.465Z,30.54
2017-03-07T11:09:12.460Z,30.35
2017-03-07T11:10:12.565Z,30.35
2017-03-07T11:11:13.326Z,30.43
2017-03-07T11:12:12.478Z,30.73
2017-03-07T11:13:12.638Z,30.35
2017-03-07T11:14:12.596Z,30.04
2017-03-07T11:15:12.551Z,30.15
2017-03-07T11:16:12.610Z,30.25
2017-03-07T11:17:12.573Z,29.96
2017-03-07T11:18:12.584Z,30.15
2017-03-07T11:19:12.584Z,30.04
2017-03-07T11:20:12.146Z,30.25
2017-03-07T11:21:12.555Z,30.44
2017-03-07T11:22:13.755Z,30.35
2017-03-07T11:23:12.613Z,30.14
2017-03-07T11:24:13.069Z,30.24
2017-03-07T11:25:12.624Z,29.94
2017-03-07T11:26:12.582Z,30.14
2017-03-07T11:27:12.633Z,30.33
2017-03-07T11:28:12.696Z,30.72
2017-03-07T11:29:12.600Z,30.43
2017-03-07T11:30:12.711Z,30.91
2017-03-07T11:31:12.616Z,30.43
2017-03-07T11:32:12.297Z,30.72
2017-03-07T11:33:13.665Z,30.72
2017-03-07T11:34:12.702Z,31.1
2017-03-07T11:35:13.493Z,31.12
2017-03-07T11:36:12.701Z,31.1
2017-03-07T11:37:12.756Z,30.93
2017-03-07T11:38:12.725Z,31.12
2017-03-07T11:39:12.668Z,31.22
2017-03-07T11:40:12.677Z,31.02
2017-03-07T11:41:12.802Z,30.63
2017-03-07T11:42:12.394Z,30.63
2017-03-07T11:43:12.777Z,31.02
2017-03-07T11:44:12.757Z,30.93
2017-03-07T11:45:12.765Z,30.73
2017-03-07T11:46:13.971Z,31.02
2017-03-07T11:47:12.724Z,30.93
2017-03-07T11:48:12.840Z,30.93
2017-03-07T11:49:12.807Z,30.44
2017-03-07T11:50:12.796Z,30.93
2017-03-07T11:51:13.353Z,30.63
2017-03-07T11:52:12.815Z,30.63
2017-03-07T11:53:12.821Z,30.25
2017-03-07T11:54:12.378Z,30.35
2017-03-07T11:55:12.890Z,30.35
2017-03-07T11:56:12.852Z,30.83
2017-03-07T11:57:12.845Z,31.02
2017-03-07T11:58:12.852Z,30.73
2017-03-07T11:59:12.809Z,31.02
2017-03-07T12:00:12.889Z,31.12
2017-03-07T12:01:12.871Z,31.12
2017-03-07T12:02:12.493Z,31.12
2017-03-07T12:03:12.887Z,31.12
2017-03-07T12:04:12.851Z,30.73
2017-03-07T12:05:12.454Z,30.83
2017-03-07T12:06:12.858Z,30.83
2017-03-07T12:07:12.864Z,31.02
2017-03-07T12:08:12.921Z,30.93
2017-03-07T12:09:12.880Z,30.63
2017-03-07T12:10:12.935Z,30.73
2017-03-07T12:11:12.896Z,30.93
2017-03-07T12:12:12.977Z,30.83
2017-03-07T12:13:14.124Z,30.93
2017-03-07T12:14:12.916Z,30.44
2017-03-07T12:15:12.969Z,30.93
2017-03-07T12:16:12.929Z,30.83
2017-03-07T12:17:13.385Z,31.02
2017-03-07T12:18:13.198Z,31.12
2017-03-07T12:19:12.951Z,31.12
2017-03-07T12:20:12.956Z,31.22
2017-03-07T12:21:13.014Z,31.41
2017-03-07T12:22:13.024Z,31.12
2017-03-07T12:23:13.026Z,31.41
2017-03-07T12:24:12.984Z,31.31
2017-03-07T12:25:12.989Z,31.31
2017-03-07T12:26:13.047Z,31.22
2017-03-07T12:27:13.060Z,30.93
2017-03-07T12:28:13.510Z,31.22
2017-03-07T12:29:12.671Z,31.12
2017-03-07T12:30:13.074Z,31.22
2017-03-07T12:31:12.636Z,31.02
2017-03-07T12:32:13.104Z,31.12
2017-03-07T12:33:13.056Z,31.22
2017-03-07T12:34:13.101Z,31.22
2017-03-07T12:35:13.119Z,31.13
2017-03-07T12:36:13.063Z,30.94
2017-03-07T12:37:13.123Z,30.93
2017-03-07T12:38:12.731Z,31.02
2017-03-07T12:39:14.091Z,31.02
2017-03-07T12:40:13.096Z,30.83
2017-03-07T12:41:13.213Z,30.75
2017-03-07T12:42:13.121Z,30.65
2017-03-07T12:43:13.172Z,31.04
2017-03-07T12:44:13.220Z,31.12
2017-03-07T12:45:13.235Z,31.13
2017-03-07T12:46:13.235Z,31.13
2017-03-07T12:47:13.219Z,31.12
2017-03-07T12:48:12.753Z,31.13
2017-03-07T12:49:13.154Z,31.04
2017-03-07T12:50:14.361Z,31.23
2017-03-07T12:51:13.178Z,31.12
2017-03-07T12:52:13.231Z,30.93
2017-03-07T12:53:13.181Z,31.02
2017-03-07T12:54:13.326Z,31.41